Terminal Aerodrome Forecast
Issued by NWS Twin Cities, MN

Home | Current Version | Previous Version | Graphics & Text | Print | Product List | Glossary On
Versions: 1 2 3 4 5 6 7 8 9 10 11 12 13 14 15 16 17 18 19 20 21 22 23 24 25 26 27
000
FTUS43 KMPX 172143 AAA
TAFMSP
TAF AMD
KMSP 172143Z 1722/1824 28012G18KT P6SM SCT045
     FM180000 28007KT P6SM FEW250
     FM180800 12005KT P6SM BKN100
     FM181500 14013G21KT P6SM SCT025 OVC080
     FM181800 18014G21KT P6SM SCT025 OVC080
     FM182200 22008KT P6SM SCT025 OVC050=

USA.gov is the U.S. government's official web portal to all federal, state and local government web resources and services.